AirNav   ATP
 
 1614 users online  

CL35 Warner Springs Gliderport
Warner Springs, California, USA

GOING TO WARNER SPRINGS?


FAA INFORMATION EFFECTIVE 21 JUNE 2018

Location

FAA Identifier: CL35
Lat/Long: 33-17-04.2100N / 116-40-10.7650W
33-17.070167N / 116-40.179417W
33.2845028 / -116.6696569
(estimated)
Elevation: 2880 ft. / 878 m (estimated)
Variation: 13E (1985)
From city: 2 miles E of WARNER SPRINGS, CA
Time zone: UTC -7 (UTC -8 during Standard Time)
Zip code: 92086

Gliderport Operations

Gliderport use: Private use. Permission required prior to landing
Activation date: 10/1984
Control tower: no
ARTCC: LOS ANGELES CENTER
FSS: SAN DIEGO FLIGHT SERVICE STATION
Attendance: 0900-1700
Wind indicator: yes
Segmented circle: yes
Landing fee: yes

Gliderport Communications

UNICOM: 122.8
WX AWOS-3 at L08 (18 nm E): 126.575 (760-767-3308)
WX ASOS at RNM (19 nm SW): 132.025 (760-789-0736)

Nearby radio navigation aids

VOR radial/distance  VOR name  Freq  Var
JLIr319/9.6JULIAN VORTAC114.0015E
TRMr218/32.8THERMAL VORTAC116.2013E
PSPr186/37.1PALM SPRINGS VORTAC115.5013E
OCNr071/37.6OCEANSIDE VORTAC115.3015E
HDFr125/(39.2)HOMELAND VOR113.4014E

Gliderport Services

Runway Information

Runway 8/26

Dimensions: 3500 x 70 ft. / 1067 x 21 m
Surface: asphalt
RUNWAY 8  RUNWAY 26
Latitude: 33-17.060333N33-17.080000N
Longitude: 116-40.522667W116-39.836167W
Elevation: 2873.0 ft.2914.0 ft.
Traffic pattern: leftleft
Obstructions: none200 ft. hill, 5200 ft. from runway

Gliderport Ownership and Management from official FAA records

Ownership: Privately-owned
Owner: WARNER SPRINGS RANCH RESORT, LLC
31930 HWY 79
WARNER SPRINGS, CA 92086
Phone 760-782-4200
SKY SAILING 31930 HWY 79.
Manager: BRET WILLAT
SKY SAILING 31930 HWY 79
WARNER SPRINGS, CA 92086
Phone 760-782-0404
LEASEE.

Gliderport Operational Statistics

Aircraft based on the field: 80
Single engine airplanes: 10
Gliders airplanes: 70
    

Instrument Procedures

There are no published instrument procedures at CL35.

Some nearby airports with instrument procedures:

L08 - Borrego Valley Airport (18 nm E)
KRNM - Ramona Airport (19 nm SW)
F70 - French Valley Airport (29 nm NW)
L18 - Fallbrook Community Airpark (29 nm W)
KSEE - Gillespie Field Airport (31 nm SW)
 
Loc | Ops | Rwys | IFR | FBO | Links
Com | Nav | Svcs | Stats | Notes


 
Area around CL35 (Warner Springs Gliderport)
 
Road maps at: MapQuest Bing Google
 
Aerial photo
WARNING: Photo may not be current or correct
Aerial photo of CL35 (Warner Springs Gliderport)
Photo by Steve Lupinacci
Photo taken 27-May-2008

Do you have a better or more recent aerial photo of Warner Springs Gliderport that you would like to share? If so, please send us your photo.

 
Sectional chart

 
Airport distance calculator
Flying to Warner Springs Gliderport? Find the distance to fly.

From to CL35

Sunrise and sunset
Times for 18-Jul-2018
 Local
(UTC-7)
 Zulu
(UTC)
Morning civil twilight05:2312:23
Sunrise05:5112:51
Sunset19:5502:55
Evening civil twilight20:2303:23

Current date and time
Zulu (UTC)  18-Jul-2018 18:15:50
Local (UTC-7)  18-Jul-2018 11:15:50
 
METAR
KL08 
18nm E 
181755Z AUTO 26007KT 10SM FEW038 34/22 A2998 RMK AO2
KRNM 
20nm SW 
181753Z 29008KT 10SM CLR 29/17 A3004 RMK AO2 SLP154 T02890172 10289 20183 50000
KF70 
29nm NW 
181755Z AUTO 19006KT 10SM CLR 26/17 A3005 RMK AO1
KL18 
29nm W 
181755Z AUTO 25004KT 10SM CLR 26/18 A3003 RMK AO2
KSEE 
32nm SW 
181747Z 00000KT 10SM SKC 25/17 A3000
KCRQ 
32nm W 
181753Z 26009KT 10SM CLR 22/18 A3001 RMK AO2 SLP159 T02170183 10222 20189 58006
KTRM 
33nm NE 
181752Z AUTO VRB04KT 10SM CLR 35/23 A2995 RMK AO2 SLP144 60000 T03500233 10350 20289 50001
KPSP 
33nm N 
181753Z 10007KT 10SM BKN039 BKN046 33/22 A3002 RMK AO2 SLP159 60000 T03330222 10344 20289 50003 $
KNFG 
33nm W 
181755Z VRB05KT 10SM BKN050 BKN100 25/19 A3000 RMK AO2 SLP159 T02500189 10256 20189 58003
KNKX 
34nm SW 
181755Z 26008KT 10SM SCT100 BKN200 28/17 A3002 RMK AO2 SLP158 T02780172 10289 20206 58005
TAF
KCRQ 
32nm W 
181732Z 1818/1918 VRB04KT P6SM SCT012 SCT200 FM182000 26008KT P6SM SCT200 FM190000 VRB04KT P6SM SCT200 FM190800 VRB04KT P6SM BKN010
KTRM 
33nm NE 
181732Z 1818/1918 18008KT P6SM SCT090 SCT200 FM190300 VRB04KT P6SM SCT200
KPSP 
33nm N 
181732Z 1818/1918 07010KT P6SM SCT090 SCT200 FM190100 11005KT P6SM SCT200
KNFG 
33nm W 
1815/1915 VRB05KT 9999 OVC015 QNH2997INS BECMG 1817/1819 22010KT 9999 SCT015 QNH2992INS FM190300 VRB05KT 9999 BKN015 QNH2993INS T26/1821Z T20/1912Z
KNKX 
34nm SW 
1815/1915 VRB05KT 9999 OVC013 QNH3000INS BECMG 1816/1818 28008KT 9999 SCT012 QNH2995INS BECMG 1823/1901 VRB05KT 9999 OVC015 QNH2994INS T29/1822Z T22/1912Z
NOTAMs
Click for the latest NOTAMs
NOTAMs are issued by the DoD/FAA and will open in a separate window not controlled by AirNav.

 

 
 

Would you like to see your business listed on this page?

 If your business provides an interesting product or service to pilots, flight crews, aircraft, or users of the Warner Springs Gliderport, you should consider listing it here.  To start the listing process, click on the button below
 
Add a business
 

Other Pages about Warner Springs Gliderport

www.agcsc.org/warner_springs_info.html
 
Update a link
 
Copyright © AirNav, LLC. All rights reserved. Privacy Policy  Contact